Blackhawk Village, Iowa
Current Conditions -  °F | °C
As of 9:54 AM on Thursday 29 Jan 2015 (Local Time) from KALO Reporting Station
Overcast Overcast  
Wind Chill: 21°   Ceiling: 1700
Heat Index: 33°   Visibility: 10mi
Dew Point: 29°   Wind: 23mph
Humidity: 85%   Direction: 320°NW
Pressure: 30.11"   Gusts: 31mph
Location:  42.5035°N, 92.4936°W
Report Text: KALO 291554Z AUTO 32020G27KT 10SM BKN017 OVC025 01/M02 A3011 RMK AO2 PK WND 31030/1503 SLP206 T00061017
Loading
Personal Weather Stations






























Interactive Weather Map New forecast layout! Learn more

10-Day Weather Forecast

Advertisements
Track Severe Weather on mobile